Time;durP1;ratioP1;P1;durP2;ratioP2;P2;SDS_P1;SDS_P2;PMS_P1;PMS_P2;Temp;Humidity;BMP_temperature;BMP_pressure;BME280_temperature;BME280_humidity;BME280_pressure;Samples;Min_cycle;Max_cycle;Signal;HPM_P1;HPM_P2
2022/01/02 00:00:22;;;;;;;;;;;;;;;;;;5032638;28;19909;-66
2022/01/02 00:02:51;;;;;;;;;;;11.30;99.90;;;;;;5047560;28;20575;-66
2022/01/02 00:05:19;;;;;;;;;;;11.30;99.90;;;;;;5050796;28;20003;-66
2022/01/02 00:08:01;;;;;;;;;;;11.30;99.90;;;;;;5047524;28;19916;-66
2022/01/02 00:10:30;;;;;;;;;;;11.40;99.90;;;;;;5039046;28;20320;-65
2022/01/02 00:12:59;;;;;;;;;;;11.40;99.90;;;;;;5050801;28;19916;-66
2022/01/02 00:15:25;;;;;;;;;;;;;;;;;;5052524;28;19909;-66
2022/01/02 00:17:53;;;;;;;;;;;11.50;99.90;;;;;;5051598;28;19908;-66
2022/01/02 00:20:31;;;;;;;;;;;11.50;99.90;;;;;;5050370;28;19962;-66
2022/01/02 00:22:57;;;;;;;;;;;;;;;;;;5051805;28;19909;-66
2022/01/02 00:25:28;;;;;;;;;;;;;;;;;;5046405;28;19917;-66
2022/01/02 00:27:54;;;;;;;;;;;11.70;99.90;;;;;;5040002;28;19909;-66
2022/01/02 00:30:20;;;;;;;;;;;11.70;99.90;;;;;;5049262;28;19948;-66
2022/01/02 00:32:45;;;;;;;;;;;11.80;99.90;;;;;;5049218;28;20408;-66
2022/01/02 00:35:11;;;;;;;;;;;11.80;99.90;;;;;;5044937;28;20357;-66
2022/01/02 00:37:36;;;;;;;;;;;11.80;99.90;;;;;;5052741;28;19948;-66
2022/01/02 00:40:03;;;;;;;;;;;11.70;99.90;;;;;;5055972;28;19956;-66
2022/01/02 00:42:28;;;;;;;;;;;11.80;99.90;;;;;;5042149;28;19909;-66
2022/01/02 00:44:54;;;;;;;;;;;11.80;99.90;;;;;;5050819;28;20285;-66
2022/01/02 00:47:25;;;;;;;;;;;11.80;99.90;;;;;;5044913;28;19909;-66
2022/01/02 00:50:11;;;;;;;;;;;11.90;99.90;;;;;;5049426;28;19916;-66
2022/01/02 00:52:41;;;;;;;;;;;11.90;99.90;;;;;;5049297;28;19916;-66
2022/01/02 00:55:09;;;;;;;;;;;12.00;99.90;;;;;;5050487;28;19912;-66
2022/01/02 00:57:35;;;;;;;;;;;11.90;99.90;;;;;;5040100;28;19916;-65
2022/01/02 01:00:04;;;;;;;;;;;12.00;99.90;;;;;;5046586;28;19909;-65
2022/01/02 01:02:33;;;;;;;;;;;12.10;99.90;;;;;;5047808;28;19921;-66
2022/01/02 01:05:01;;;;;;;;;;;12.10;99.90;;;;;;5046854;28;19913;-65
2022/01/02 01:07:27;;;;;;;;;;;12.00;99.90;;;;;;5045900;28;19999;-66
2022/01/02 01:09:54;;;;;;;;;;;12.20;99.90;;;;;;5054412;28;20512;-66
2022/01/02 01:12:20;;;;;;;;;;;12.10;99.90;;;;;;5040281;28;19909;-65
2022/01/02 01:14:46;;;;;;;;;;;12.30;99.90;;;;;;5050327;28;20372;-65
2022/01/02 01:17:14;;;;;;;;;;;12.40;99.90;;;;;;5058230;28;19908;-65
2022/01/02 01:19:40;;;;;;;;;;;12.40;99.90;;;;;;5035798;28;20354;-66
2022/01/02 01:22:05;;;;;;;;;;;12.50;99.90;;;;;;5051191;28;20023;-66
2022/01/02 01:24:34;;;;;;;;;;;12.50;99.90;;;;;;5041511;28;19932;-66
2022/01/02 01:27:01;;;;;;;;;;;12.50;99.90;;;;;;5050217;28;19924;-66
2022/01/02 01:29:27;;;;;;;;;;;12.50;99.90;;;;;;5046037;28;20293;-65
2022/01/02 01:31:52;;;;;;;;;;;12.60;99.90;;;;;;5050741;28;19909;-65
2022/01/02 01:34:18;;;;;;;;;;;12.50;99.90;;;;;;5049631;28;19908;-66
2022/01/02 01:36:43;;;;;;;;;;;12.60;99.90;;;;;;5048640;28;19917;-66
2022/01/02 01:39:09;;;;;;;;;;;12.60;99.90;;;;;;5043744;28;20416;-65
2022/01/02 01:41:37;;;;;;;;;;;12.70;99.90;;;;;;5048777;28;19909;-65
2022/01/02 01:44:21;;;;;;;;;;;12.70;99.90;;;;;;5047266;28;20281;-66
2022/01/02 01:46:54;;;;;;;;;;;12.70;99.90;;;;;;5049663;28;19999;-66
2022/01/02 01:49:22;;;;;;;;;;;12.80;99.90;;;;;;5049460;28;19943;-66
2022/01/02 01:51:47;;;;;;;;;;;12.80;99.90;;;;;;5050552;28;20285;-66
2022/01/02 01:54:13;;;;;;;;;;;12.90;99.90;;;;;;5046438;28;19913;-66
2022/01/02 01:56:39;;;;;;;;;;;12.90;99.90;;;;;;5049612;28;19915;-66
2022/01/02 01:59:05;;;;;;;;;;;13.00;99.90;;;;;;5048188;28;19912;-66
2022/01/02 02:01:31;;;;;;;;;;;13.10;99.90;;;;;;5049814;28;19912;-66
2022/01/02 02:03:57;;;;;;;;;;;13.20;99.90;;;;;;5039810;28;19909;-65
2022/01/02 02:06:22;;;;;;;;;;;13.10;99.90;;;;;;5044959;28;19923;-65
2022/01/02 02:08:50;;;;;;;;;;;13.10;99.90;;;;;;5044733;28;19927;-66
2022/01/02 02:11:16;;;;;;;;;;;13.10;99.90;;;;;;5043083;28;20380;-65
2022/01/02 02:13:42;;;;;;;;;;;13.10;99.90;;;;;;5046503;28;19916;-66
2022/01/02 02:16:07;;;;;;;;;;;13.00;99.90;;;;;;5049724;28;19909;-65
2022/01/02 02:18:34;;;;;;;;;;;12.90;99.90;;;;;;5041748;28;20387;-65
2022/01/02 02:21:00;;;;;;;;;;;12.90;99.90;;;;;;5040212;28;20384;-65
2022/01/02 02:23:26;;;;;;;;;;;12.90;99.90;;;;;;5041998;28;19987;-66
2022/01/02 02:25:51;;;;;;;;;;;12.90;99.90;;;;;;5053796;28;19943;-65
2022/01/02 02:28:17;;;;;;;;;;;12.80;99.90;;;;;;5050387;28;19908;-65
2022/01/02 02:30:44;;;;;;;;;;;12.80;99.90;;;;;;5041316;28;20003;-65
2022/01/02 02:33:10;;;;;;;;;;;12.70;99.90;;;;;;5046620;28;19909;-65
2022/01/02 02:35:37;;;;;;;;;;;12.70;99.90;;;;;;5045275;28;19915;-65
2022/01/02 02:38:03;;;;;;;;;;;12.70;99.90;;;;;;5045711;28;20368;-65
2022/01/02 02:40:29;;;;;;;;;;;12.90;99.90;;;;;;5043710;28;19944;-65
2022/01/02 02:51:15;;;;;;;;;;;13.10;99.90;;;;;;5054803;28;19915;-65
2022/01/02 02:53:42;;;;;;;;;;;;;;;;;;5045343;28;19909;-66
2022/01/02 02:56:30;;;;;;;;;;;;;;;;;;5048110;28;20003;-65
2022/01/02 02:58:56;;;;;;;;;;;;;;;;;;5044082;28;20305;-65
2022/01/02 03:01:22;;;;;;;;;;;;;;;;;;5047623;28;20381;-65
2022/01/02 03:03:48;;;;;;;;;;;13.40;99.90;;;;;;5044315;28;20812;-65
2022/01/02 03:06:14;;;;;;;;;;;13.30;99.90;;;;;;5050261;28;19912;-64
2022/01/02 03:08:41;;;;;;;;;;;13.20;99.90;;;;;;5049860;28;20015;-65
2022/01/02 03:11:09;;;;;;;;;;;13.10;99.90;;;;;;5047731;28;20285;-65
2022/01/02 03:13:35;;;;;;;;;;;12.90;99.90;;;;;;5046082;28;19967;-65
2022/01/02 03:16:01;;;;;;;;;;;12.90;99.90;;;;;;5051064;28;19966;-65
2022/01/02 03:18:26;;;;;;;;;;;12.60;99.90;;;;;;5041891;28;20335;-65
2022/01/02 03:20:52;;;;;;;;;;;12.70;99.90;;;;;;5061853;28;19970;-66
2022/01/02 03:23:17;;;;;;;;;;;12.70;99.90;;;;;;5046288;28;19982;-65
2022/01/02 03:25:43;;;;;;;;;;;12.70;99.90;;;;;;5049487;28;19916;-65
2022/01/02 03:28:08;;;;;;;;;;;12.60;99.90;;;;;;5051488;28;20371;-65
2022/01/02 03:30:34;;;;;;;;;;;12.70;99.90;;;;;;5051396;28;20266;-65
2022/01/02 03:33:00;;;;;;;;;;;12.60;99.90;;;;;;5063051;28;19909;-65
2022/01/02 03:35:25;;;;;;;;;;;12.70;99.90;;;;;;5043312;28;20365;-65
2022/01/02 03:37:51;;;;;;;;;;;12.80;99.90;;;;;;5060110;28;19916;-65
2022/01/02 03:40:17;;;;;;;;;;;12.70;99.90;;;;;;5048495;28;20388;-66
2022/01/02 03:42:42;;;;;;;;;;;12.60;99.90;;;;;;5049330;28;19912;-65
2022/01/02 03:45:09;;;;;;;;;;;12.50;99.90;;;;;;5049128;28;19913;-65
2022/01/02 03:47:34;;;;;;;;;;;12.60;99.90;;;;;;5063390;28;19909;-65
2022/01/02 03:50:00;;;;;;;;;;;12.50;99.90;;;;;;5050122;28;19931;-65
2022/01/02 03:52:26;;;;;;;;;;;12.50;99.90;;;;;;5044011;28;20008;-65
2022/01/02 03:54:51;;;;;;;;;;;12.50;99.90;;;;;;5046861;28;19913;-65
2022/01/02 03:57:17;;;;;;;;;;;;;;;;;;5037621;28;20289;-66
2022/01/02 03:59:43;;;;;;;;;;;12.40;99.90;;;;;;5041318;28;20316;-66
2022/01/02 04:02:08;;;;;;;;;;;12.30;99.90;;;;;;5047027;28;19916;-66
2022/01/02 04:04:34;;;;;;;;;;;12.40;99.90;;;;;;5048154;28;19909;-66
2022/01/02 04:06:59;;;;;;;;;;;12.30;99.90;;;;;;5045879;28;19918;-64
2022/01/02 04:09:24;;;;;;;;;;;12.20;99.90;;;;;;5057624;28;20304;-65
2022/01/02 04:11:50;;;;;;;;;;;;;;;;;;5049414;28;20030;-65
2022/01/02 04:14:16;;;;;;;;;;;12.30;99.90;;;;;;5049088;28;20266;-65
2022/01/02 04:16:41;;;;;;;;;;;12.20;99.90;;;;;;5045233;28;20422;-65
2022/01/02 04:19:07;;;;;;;;;;;;;;;;;;5045455;28;19916;-65
2022/01/02 04:21:33;;;;;;;;;;;;;;;;;;5046420;28;19920;-66
2022/01/02 04:23:59;;;;;;;;;;;12.10;99.90;;;;;;5045329;28;20381;-65
2022/01/02 04:26:24;;;;;;;;;;;;;;;;;;5050049;28;19913;-65
2022/01/02 04:28:50;;;;;;;;;;;;;;;;;;5043784;28;19959;-65
2022/01/02 04:31:16;;;;;;;;;;;12.20;99.90;;;;;;5045260;28;20304;-65
2022/01/02 04:33:41;;;;;;;;;;;12.10;99.90;;;;;;5045178;28;19909;-65
2022/01/02 04:36:07;;;;;;;;;;;12.20;99.90;;;;;;5047649;28;20391;-65
2022/01/02 04:38:33;;;;;;;;;;;12.20;99.90;;;;;;5047994;28;19917;-65
2022/01/02 04:40:59;;;;;;;;;;;12.30;99.90;;;;;;5038883;28;20292;-65
2022/01/02 04:43:24;;;;;;;;;;;12.20;99.90;;;;;;5047613;28;19916;-65
2022/01/02 04:45:50;;;;;;;;;;;12.20;99.90;;;;;;5050216;28;19920;-65
2022/01/02 04:48:16;;;;;;;;;;;;;;;;;;5051361;28;19908;-66
2022/01/02 04:50:42;;;;;;;;;;;;;;;;;;5048014;28;19909;-65
2022/01/02 04:53:08;;;;;;;;;;;;;;;;;;5042217;28;19951;-65
2022/01/02 04:55:33;;;;;;;;;;;;;;;;;;5050216;28;19913;-65
2022/01/02 04:57:59;;;;;;;;;;;;;;;;;;5046683;28;19909;-65
2022/01/02 05:00:25;;;;;;;;;;;;;;;;;;5047864;28;21621;-65
2022/01/02 05:02:52;;;;;;;;;;;;;;;;;;5046902;28;19909;-65
2022/01/02 05:05:18;;;;;;;;;;;12.20;99.90;;;;;;5038881;28;19999;-65
2022/01/02 05:07:44;;;;;;;;;;;12.00;99.90;;;;;;5050006;28;19955;-65
2022/01/02 05:10:09;;;;;;;;;;;12.10;99.90;;;;;;5046598;28;20023;-65
2022/01/02 05:12:35;;;;;;;;;;;12.00;99.90;;;;;;5049924;28;19909;-64
2022/01/02 05:15:01;;;;;;;;;;;12.00;99.90;;;;;;5042344;28;19909;-65
2022/01/02 05:17:26;;;;;;;;;;;;;;;;;;5047769;28;19908;-65
2022/01/02 05:19:52;;;;;;;;;;;;;;;;;;5049369;28;19963;-65
2022/01/02 05:22:18;;;;;;;;;;;;;;;;;;5043424;28;19913;-65
2022/01/02 05:24:44;;;;;;;;;;;;;;;;;;5057457;28;19915;-65
2022/01/02 05:27:10;;;;;;;;;;;;;;;;;;5045273;28;19909;-65
2022/01/02 05:29:36;;;;;;;;;;;;;;;;;;5047475;28;19917;-65
2022/01/02 05:32:02;;;;;;;;;;;12.50;99.90;;;;;;5047187;28;19938;-65
2022/01/02 05:34:27;;;;;;;;;;;11.70;99.90;;;;;;5050781;28;19980;-65
2022/01/02 05:36:53;;;;;;;;;;;11.70;99.90;;;;;;5043116;28;19936;-66
2022/01/02 05:39:19;;;;;;;;;;;11.70;99.90;;;;;;5049977;28;19952;-66
2022/01/02 05:41:45;;;;;;;;;;;11.60;99.90;;;;;;5042554;28;20404;-66
2022/01/02 05:44:11;;;;;;;;;;;11.50;99.90;;;;;;5050025;28;20406;-65
2022/01/02 05:46:36;;;;;;;;;;;11.50;99.90;;;;;;5043760;28;19913;-66
2022/01/02 05:49:02;;;;;;;;;;;11.40;99.90;;;;;;5054719;28;20466;-66
2022/01/02 05:51:27;;;;;;;;;;;11.50;99.90;;;;;;5037155;28;19909;-65
2022/01/02 05:53:53;;;;;;;;;;;11.40;99.90;;;;;;5039555;28;19913;-65
2022/01/02 05:56:19;;;;;;;;;;;;;;;;;;5041123;28;19940;-66
2022/01/02 05:58:44;;;;;;;;;;;11.50;99.90;;;;;;5048666;28;19909;-66
2022/01/02 06:01:10;;;;;;;;;;;11.40;99.90;;;;;;5040680;28;19913;-65
2022/01/02 06:03:35;;;;;;;;;;;11.50;99.90;;;;;;5048008;28;19909;-66
2022/01/02 06:06:01;;;;;;;;;;;;;;;;;;5042633;28;19934;-65
2022/01/02 06:08:27;;;;;;;;;;;;;;;;;;5047212;28;19909;-65
2022/01/02 06:10:53;;;;;;;;;;;;;;;;;;5039802;28;20312;-65
2022/01/02 06:13:18;;;;;;;;;;;11.30;99.90;;;;;;5040986;28;19939;-66
2022/01/02 06:15:44;;;;;;;;;;;11.20;99.90;;;;;;5046683;28;19908;-65
2022/01/02 06:18:09;;;;;;;;;;;11.30;99.90;;;;;;5049953;28;19913;-66
2022/01/02 06:20:35;;;;;;;;;;;11.20;99.90;;;;;;5055078;28;19913;-66
2022/01/02 06:23:01;;;;;;;;;;;;;;;;;;5050315;28;19909;-66
2022/01/02 06:25:27;;;;;;;;;;;;;;;;;;5051631;28;19917;-68
2022/01/02 06:27:52;;;;;;;;;;;11.20;99.90;;;;;;5043274;28;19917;-66
2022/01/02 06:30:18;;;;;;;;;;;;;;;;;;5051937;28;19987;-66
2022/01/02 06:32:44;;;;;;;;;;;;;;;;;;5050896;28;19915;-66
2022/01/02 06:35:10;;;;;;;;;;;;;;;;;;5043968;28;19962;-65
2022/01/02 06:37:36;;;;;;;;;;;11.30;99.90;;;;;;5049651;28;19916;-66
2022/01/02 06:40:01;;;;;;;;;;;11.20;99.90;;;;;;5060102;28;19908;-65
2022/01/02 06:42:27;;;;;;;;;;;;;;;;;;5051932;28;19911;-65
2022/01/02 06:44:53;;;;;;;;;;;;;;;;;;5046762;28;19915;-65
2022/01/02 06:47:19;;;;;;;;;;;;;;;;;;5051574;28;20459;-65
2022/01/02 06:49:44;;;;;;;;;;;11.40;99.90;;;;;;5044843;28;19916;-65
2022/01/02 06:52:10;;;;;;;;;;;;;;;;;;5047190;28;19909;-65
2022/01/02 06:54:37;;;;;;;;;;;11.50;99.90;;;;;;5046968;28;19991;-65
2022/01/02 06:57:03;;;;;;;;;;;;;;;;;;5048921;28;20649;-68
2022/01/02 06:59:30;;;;;;;;;;;11.40;99.90;;;;;;5051628;28;20061;-65
2022/01/02 07:01:56;;;;;;;;;;;;;;;;;;5051347;28;20395;-65
2022/01/02 07:04:22;;;;;;;;;;;;;;;;;;5042225;28;20016;-66
2022/01/02 07:06:48;;;;;;;;;;;11.50;99.90;;;;;;5038843;28;19927;-66
2022/01/02 07:09:13;;;;;;;;;;;;;;;;;;5049993;28;19908;-66
2022/01/02 07:11:39;;;;;;;;;;;;;;;;;;5046742;28;19963;-66
2022/01/02 07:14:05;;;;;;;;;;;;;;;;;;5048129;28;19909;-66
2022/01/02 07:16:31;;;;;;;;;;;11.60;99.90;;;;;;5044838;28;19909;-66
2022/01/02 07:18:56;;;;;;;;;;;11.50;99.90;;;;;;5049533;28;19916;-65
2022/01/02 07:21:22;;;;;;;;;;;11.60;99.90;;;;;;5051996;28;19909;-65
2022/01/02 07:23:48;;;;;;;;;;;11.60;99.90;;;;;;5039824;28;19974;-66
2022/01/02 07:26:14;;;;;;;;;;;;;;;;;;5044300;28;19927;-66
2022/01/02 07:28:40;;;;;;;;;;;;;;;;;;5048796;28;20373;-66
2022/01/02 07:31:05;;;;;;;;;;;11.30;99.90;;;;;;5051074;28;19917;-65
2022/01/02 07:33:31;;;;;;;;;;;11.20;99.90;;;;;;5059246;28;20460;-68
2022/01/02 07:35:56;;;;;;;;;;;11.10;99.90;;;;;;5047463;28;19955;-68
2022/01/02 07:38:22;;;;;;;;;;;11.10;99.90;;;;;;5050984;28;19913;-68
2022/01/02 07:40:48;;;;;;;;;;;10.90;99.90;;;;;;5050864;28;19998;-69
2022/01/02 07:43:14;;;;;;;;;;;11.10;99.90;;;;;;5049132;28;20050;-66
2022/01/02 07:45:39;;;;;;;;;;;11.00;99.90;;;;;;5042840;28;20424;-66
2022/01/02 07:48:05;;;;;;;;;;;10.90;99.90;;;;;;5051768;28;19909;-66
2022/01/02 07:50:30;;;;;;;;;;;11.00;99.90;;;;;;5049397;28;19999;-68
2022/01/02 07:52:56;;;;;;;;;;;;;;;;;;5051452;28;19909;-67
2022/01/02 07:55:22;;;;;;;;;;;;;;;;;;5051271;28;19908;-68
2022/01/02 07:57:48;;;;;;;;;;;;;;;;;;5048264;28;23280;-68
2022/01/02 08:00:14;;;;;;;;;;;;;;;;;;5046166;28;19909;-67
2022/01/02 08:02:40;;;;;;;;;;;;;;;;;;5043289;28;19908;-66
2022/01/02 08:05:12;;;;;;;;;;;;;;;;;;5052288;28;19966;-65
2022/01/02 08:07:38;;;;;;;;;;;;;;;;;;5046122;28;19936;-66
2022/01/02 08:10:04;;;;;;;;;;;;;;;;;;5044706;28;19955;-65
2022/01/02 08:12:30;;;;;;;;;;;;;;;;;;5049188;28;19908;-66
2022/01/02 08:14:56;;;;;;;;;;;;;;;;;;5044200;28;19909;-66
2022/01/02 08:17:22;;;;;;;;;;;;;;;;;;5051230;28;19917;-65
2022/01/02 08:19:47;;;;;;;;;;;;;;;;;;5044632;28;20767;-65
2022/01/02 08:22:13;;;;;;;;;;;;;;;;;;5047027;28;19916;-66
2022/01/02 08:24:39;;;;;;;;;;;;;;;;;;5050899;28;19909;-67
2022/01/02 08:27:05;;;;;;;;;;;;;;;;;;5047679;28;19947;-68
2022/01/02 08:29:31;;;;;;;;;;;;;;;;;;5048415;28;19917;-68
2022/01/02 08:31:57;;;;;;;;;;;;;;;;;;5047895;28;20009;-67
2022/01/02 08:34:23;;;;;;;;;;;;;;;;;;5049620;28;19913;-68
2022/01/02 08:36:49;;;;;;;;;;;;;;;;;;5051375;28;19917;-66
2022/01/02 08:39:15;;;;;;;;;;;;;;;;;;5045047;28;19948;-64
2022/01/02 08:41:41;;;;;;;;;;;;;;;;;;5047568;28;19909;-65
2022/01/02 08:44:06;;;;;;;;;;;;;;;;;;5051447;28;19909;-64
2022/01/02 08:46:32;;;;;;;;;;;;;;;;;;5052603;28;19913;-65
2022/01/02 08:48:58;;;;;;;;;;;;;;;;;;5054618;28;19909;-65
2022/01/02 08:51:27;;;;;;;;;;;;;;;;;;5056705;28;19909;-65
2022/01/02 08:53:53;;;;;;;;;;;;;;;;;;5056643;28;19916;-65
2022/01/02 08:56:19;;;;;;;;;;;;;;;;;;5049438;28;19913;-65
2022/01/02 08:58:44;;;;;;;;;;;;;;;;;;5050444;28;19909;-65
2022/01/02 09:01:10;;;;;;;;;;;;;;;;;;5050065;28;20336;-65
2022/01/02 09:03:36;;;;;;;;;;;;;;;;;;5127698;22;19928;-67
2022/01/02 09:06:02;;;;;;;;;;;;;;;;;;4990585;28;19963;-68
2022/01/02 09:08:29;;;;;;;;;;;;;;;;;;5006717;28;19933;-67
2022/01/02 09:10:55;;;;;;;;;;;;;;;;;;5006197;28;19963;-68
2022/01/02 09:13:23;;;;;;;;;;;;;;;;;;5016678;28;20382;-68
2022/01/02 09:15:49;;;;;;;;;;;;;;;;;;5019269;28;20169;-68
2022/01/02 09:18:15;;;;;;;;;;;;;;;;;;5024918;28;19909;-67
2022/01/02 09:20:42;;;;;;;;;;;;;;;;;;4983860;28;20439;-67
2022/01/02 09:23:08;;;;;;;;;;;;;;;;;;5010782;28;19964;-68
2022/01/02 09:25:34;;;;;;;;;;;;;;;;;;5017632;28;19913;-67
2022/01/02 09:28:00;;;;;;;;;;;;;;;;;;5009989;28;19928;-67
2022/01/02 09:30:26;;;;;;;;;;;;;;;;;;5010859;28;19956;-67
2022/01/02 09:32:53;;;;;;;;;;;;;;;;;;5014687;28;20506;-66
2022/01/02 09:35:18;;;;;;;;;;;;;;;;;;5001052;28;19913;-67
2022/01/02 09:37:44;;;;;;;;;;;;;;;;;;5011463;28;19917;-68
2022/01/02 09:40:10;;;;;;;;;;;11.70;99.90;;;;;;5014664;28;19944;-67
2022/01/02 09:42:37;;;;;;;;;;;11.80;99.90;;;;;;5010597;28;19913;-67
2022/01/02 09:45:03;;;;;;;;;;;11.90;99.90;;;;;;5010246;28;19913;-66
2022/01/02 09:47:29;;;;;;;;;;;;;;;;;;5017131;28;19909;-67
2022/01/02 09:49:56;;;;;;;;;;;;;;;;;;5013791;28;20004;-67
2022/01/02 09:52:22;;;;;;;;;;;;;;;;;;5018785;28;20007;-67
2022/01/02 09:54:48;;;;;;;;;;;;;;;;;;5009360;28;20008;-68
2022/01/02 09:57:14;;;;;;;;;;;;;;;;;;4996244;28;20379;-67
2022/01/02 09:59:40;;;;;;;;;;;;;;;;;;5022766;28;19909;-68
2022/01/02 10:02:06;;;;;;;;;;;;;;;;;;5020723;28;19909;-67
2022/01/02 10:04:32;;;;;;;;;;;;;;;;;;4998474;28;19929;-68
2022/01/02 10:06:58;;;;;;;;;;;;;;;;;;4999140;28;20004;-67
2022/01/02 10:09:23;;;;;;;;;;;;;;;;;;5016101;28;19913;-67
2022/01/02 10:11:49;;;;;;;;;;;;;;;;;;5012880;28;20375;-67
2022/01/02 10:14:15;;;;;;;;;;;;;;;;;;5009371;28;19909;-67
2022/01/02 10:16:41;;;;;;;;;;;;;;;;;;5013619;28;19910;-67
2022/01/02 10:19:07;;;;;;;;;;;;;;;;;;5010649;28;19917;-67
2022/01/02 10:21:33;;;;;;;;;;;;;;;;;;5007429;28;19917;-67
2022/01/02 10:23:59;;;;;;;;;;;;;;;;;;5012558;28;19909;-67
2022/01/02 10:26:25;;;;;;;;;;;;;;;;;;4991525;28;19989;-67
2022/01/02 10:28:50;;;;;;;;;;;;;;;;;;5010086;28;19917;-67
2022/01/02 10:31:17;;;;;;;;;;;;;;;;;;5017414;28;19996;-68
2022/01/02 10:33:43;;;;;;;;;;;;;;;;;;5012803;28;19920;-66
2022/01/02 10:36:08;;;;;;;;;;;12.20;99.90;;;;;;5012124;28;19910;-68
2022/01/02 10:38:34;;;;;;;;;;;12.10;99.90;;;;;;5013789;28;19909;-67
2022/01/02 10:40:59;;;;;;;;;;;12.00;99.90;;;;;;5010685;28;19909;-68
2022/01/02 10:43:29;;;;;;;;;;;12.00;99.90;;;;;;5012147;28;19909;-67
2022/01/02 10:45:56;;;;;;;;;;;12.00;99.90;;;;;;5008006;28;20427;-66
2022/01/02 10:48:35;;;;;;;;;;;11.90;99.90;;;;;;5013489;28;20367;-67
2022/01/02 10:51:14;;;;;;;;;;;12.00;99.90;;;;;;5009624;28;19913;-68
2022/01/02 10:53:51;;;;;;;;;;;12.00;99.90;;;;;;5013067;28;20007;-67
2022/01/02 10:56:16;;;;;;;;;;;12.10;99.90;;;;;;5010085;28;20004;-67
2022/01/02 10:58:44;;;;;;;;;;;12.00;99.90;;;;;;5018260;28;20039;-68
2022/01/02 11:01:09;;;;;;;;;;;11.90;99.90;;;;;;5009713;28;19909;-67
2022/01/02 11:03:35;;;;;;;;;;;11.90;99.90;;;;;;5012274;28;19924;-72
2022/01/02 11:06:03;;;;;;;;;;;11.80;99.90;;;;;;5011124;28;20400;-68
2022/01/02 11:08:31;;;;;;;;;;;11.80;99.90;;;;;;5005430;28;19924;-68
2022/01/02 11:10:56;;;;;;;;;;;11.80;99.90;;;;;;5005362;28;19964;-69
2022/01/02 11:13:22;;;;;;;;;;;11.80;99.90;;;;;;5008763;28;19909;-69
2022/01/02 11:15:48;;;;;;;;;;;11.80;99.90;;;;;;5008486;28;19918;-68
2022/01/02 11:18:14;;;;;;;;;;;11.90;99.90;;;;;;4998794;28;20420;-68
2022/01/02 11:20:40;;;;;;;;;;;12.00;99.90;;;;;;5005751;28;19909;-68
2022/01/02 11:23:12;;;;;;;;;;;11.90;99.90;;;;;;5001244;28;19998;-67
2022/01/02 11:25:56;;;;;;;;;;;11.80;99.90;;;;;;5005383;28;19945;-68
2022/01/02 11:28:24;;;;;;;;;;;11.80;99.90;;;;;;5007974;28;19913;-68
2022/01/02 11:30:51;;;;;;;;;;;11.70;99.90;;;;;;5010507;28;20288;-67
2022/01/02 11:33:19;;;;;;;;;;;11.70;99.90;;;;;;5013100;28;20384;-68
2022/01/02 11:35:50;;;;;;;;;;;11.70;99.90;;;;;;5006774;28;19913;-68
2022/01/02 11:38:19;;;;;;;;;;;11.80;99.90;;;;;;5006043;28;19992;-67
2022/01/02 11:40:45;;;;;;;;;;;11.80;99.90;;;;;;4989033;28;20461;-68
2022/01/02 11:43:30;;;;;;;;;;;11.70;99.90;;;;;;5008150;28;20340;-68
2022/01/02 11:46:13;;;;;;;;;;;11.60;99.90;;;;;;5013756;28;20384;-68
2022/01/02 11:48:38;;;;;;;;;;;11.70;99.90;;;;;;5018118;28;19916;-67
2022/01/02 11:51:04;;;;;;;;;;;11.60;99.90;;;;;;5019007;28;20323;-68
2022/01/02 11:53:34;;;;;;;;;;;11.60;99.90;;;;;;5017983;28;20402;-69
2022/01/02 11:56:00;;;;;;;;;;;11.60;99.90;;;;;;5014896;28;19954;-69
2022/01/02 11:58:38;;;;;;;;;;;11.60;99.90;;;;;;5018280;28;19912;-68
2022/01/02 12:01:04;;;;;;;;;;;11.50;99.90;;;;;;4997561;28;19909;-68
2022/01/02 12:03:43;;;;;;;;;;;11.50;99.90;;;;;;5011341;28;19929;-68
2022/01/02 12:06:12;;;;;;;;;;;11.40;99.90;;;;;;5017528;28;19913;-69
2022/01/02 12:08:38;;;;;;;;;;;11.30;99.90;;;;;;5016267;28;19941;-68
2022/01/02 12:11:23;;;;;;;;;;;11.30;99.90;;;;;;5017406;28;19966;-68
2022/01/02 12:14:01;;;;;;;;;;;11.20;99.90;;;;;;5014938;28;19914;-67
2022/01/02 12:16:40;;;;;;;;;;;11.20;99.90;;;;;;5016330;28;19910;-68
2022/01/02 12:19:06;;;;;;;;;;;11.20;99.90;;;;;;5016009;28;19909;-67
2022/01/02 12:21:32;;;;;;;;;;;11.20;99.90;;;;;;5018933;28;19913;-67
2022/01/02 12:23:58;;;;;;;;;;;11.10;99.90;;;;;;5013798;28;19917;-68
2022/01/02 12:26:31;;;;;;;;;;;11.20;99.90;;;;;;5019285;28;19963;-67
2022/01/02 12:29:00;;;;;;;;;;;11.20;99.90;;;;;;5000134;28;19916;-68
2022/01/02 12:31:26;;;;;;;;;;;11.20;99.90;;;;;;5002891;28;19916;-67
2022/01/02 12:33:53;;;;;;;;;;;11.10;99.90;;;;;;5012871;28;19910;-69
2022/01/02 12:36:20;;;;;;;;;;;11.10;99.90;;;;;;5014979;28;19909;-68
2022/01/02 12:38:59;;;;;;;;;;;11.10;99.90;;;;;;5015044;28;19909;-68
2022/01/02 12:41:26;;;;;;;;;;;11.20;99.90;;;;;;5016010;28;19915;-68
2022/01/02 12:43:52;;;;;;;;;;;11.20;99.90;;;;;;5017590;28;19916;-67
2022/01/02 12:46:39;;;;;;;;;;;11.20;99.90;;;;;;5019151;28;19917;-69
2022/01/02 12:49:06;;;;;;;;;;;11.20;99.90;;;;;;5014820;28;20179;-68
2022/01/02 12:51:33;;;;;;;;;;;11.20;99.90;;;;;;5016075;28;19913;-69
2022/01/02 12:54:06;;;;;;;;;;;11.10;99.90;;;;;;5013968;28;19931;-69
2022/01/02 12:56:32;;;;;;;;;;;11.10;99.90;;;;;;5014717;28;20000;-68
2022/01/02 12:59:16;;;;;;;;;;;11.10;99.90;;;;;;5011849;28;19980;-69
2022/01/02 13:02:01;;;;;;;;;;;11.10;99.90;;;;;;5017336;28;19981;-68
2022/01/02 13:04:36;;;;;;;;;;;11.10;99.90;;;;;;5015417;28;19917;-68
2022/01/02 13:07:08;;;;;;;;;;;11.20;99.90;;;;;;5018211;28;20299;-68
2022/01/02 13:09:40;;;;;;;;;;;11.30;99.90;;;;;;5013268;28;19909;-69
2022/01/02 13:12:16;;;;;;;;;;;11.30;99.90;;;;;;4996787;28;20016;-68
2022/01/02 13:14:43;;;;;;;;;;;11.40;99.90;;;;;;5018382;28;19917;-69
2022/01/02 13:17:15;;;;;;;;;;;11.20;99.90;;;;;;5012831;28;19910;-69
2022/01/02 13:19:42;;;;;;;;;;;11.20;99.90;;;;;;5011250;28;20334;-68
2022/01/02 13:22:08;;;;;;;;;;;11.20;99.90;;;;;;5019827;28;19924;-68
2022/01/02 13:24:34;;;;;;;;;;;11.30;99.90;;;;;;5010934;28;19915;-69
2022/01/02 13:27:02;;;;;;;;;;;11.40;99.90;;;;;;5017107;28;19913;-69
2022/01/02 13:29:27;;;;;;;;;;;11.60;99.90;;;;;;5013653;28;19909;-69
2022/01/02 13:31:54;;;;;;;;;;;11.60;99.90;;;;;;5015922;28;19986;-68
2022/01/02 13:34:24;;;;;;;;;;;11.50;99.90;;;;;;5011584;28;19909;-69
2022/01/02 13:36:56;;;;;;;;;;;11.40;99.90;;;;;;5014372;28;20008;-69
2022/01/02 13:39:42;;;;;;;;;;;11.30;99.90;;;;;;5015039;28;19920;-68
2022/01/02 13:42:08;;;;;;;;;;;11.30;99.90;;;;;;5015316;28;19909;-69
2022/01/02 13:44:42;;;;;;;;;;;11.20;99.90;;;;;;5012974;28;20438;-68
2022/01/02 13:47:07;;;;;;;;;;;11.10;99.90;;;;;;5015510;28;19936;-68
2022/01/02 13:49:48;;;;;;;;;;;11.10;99.90;;;;;;5009280;28;19913;-69
2022/01/02 13:52:15;;;;;;;;;;;11.00;99.90;;;;;;5011138;28;19925;-69
2022/01/02 13:54:41;;;;;;;;;;;11.00;99.90;;;;;;5008881;28;19956;-69
2022/01/02 13:57:07;;;;;;;;;;;11.00;99.90;;;;;;5009327;28;19909;-68
2022/01/02 13:59:33;;;;;;;;;;;11.00;99.90;;;;;;5008721;28;20327;-69
2022/01/02 14:01:58;;;;;;;;;;;11.10;99.90;;;;;;5006559;28;19909;-68
2022/01/02 14:04:24;;;;;;;;;;;11.20;99.90;;;;;;5014287;28;19944;-68
2022/01/02 14:06:49;;;;;;;;;;;11.30;99.90;;;;;;5014737;28;20015;-68
2022/01/02 14:09:16;;;;;;;;;;;11.40;99.90;;;;;;5003379;28;19936;-68
2022/01/02 14:11:42;;;;;;;;;;;11.50;99.90;;;;;;5009805;28;19916;-69
2022/01/02 14:14:16;;;;;;;;;;;11.40;99.90;;;;;;5009070;28;19909;-70
2022/01/02 14:19:38;;;;;;;;;;;11.40;99.90;;;;;;5002807;28;19909;-70
2022/01/02 14:22:04;;;;;;;;;;;11.30;99.90;;;;;;5008709;28;19909;-68
2022/01/02 14:24:30;;;;;;;;;;;11.30;99.90;;;;;;5017096;28;19918;-70
2022/01/02 14:26:56;;;;;;;;;;;11.30;99.90;;;;;;5019151;28;19955;-69
2022/01/02 14:29:22;;;;;;;;;;;11.20;99.90;;;;;;5004812;28;20359;-69
2022/01/02 14:31:48;;;;;;;;;;;11.10;99.90;;;;;;5039085;22;19911;-69
2022/01/02 14:34:14;;;;;;;;;;;11.00;99.90;;;;;;4991507;28;19918;-69
2022/01/02 14:36:39;;;;;;;;;;;11.00;99.90;;;;;;5051294;22;19918;-85
2022/01/02 14:39:08;;;;;;;;;;;11.00;99.90;;;;;;5014410;28;19910;-86
2022/01/02 14:41:37;;;;;;;;;;;10.90;99.90;;;;;;5003519;28;19916;-86
2022/01/02 14:44:02;;;;;;;;;;;10.90;99.90;;;;;;5007449;28;19909;-85
2022/01/02 14:46:28;;;;;;;;;;;10.90;99.90;;;;;;5002209;28;20068;-84
2022/01/02 14:48:53;;;;;;;;;;;10.90;99.90;;;;;;5000599;28;20093;-84
2022/01/02 14:51:19;;;;;;;;;;;10.90;99.90;;;;;;4994755;28;19909;-85
2022/01/02 14:53:44;;;;;;;;;;;11.00;99.90;;;;;;4994378;28;19909;-84
2022/01/02 14:56:10;;;;;;;;;;;10.90;99.90;;;;;;4994809;28;19996;-86
2022/01/02 14:58:36;;;;;;;;;;;11.00;99.90;;;;;;4995503;28;19913;-86
2022/01/02 15:01:02;;;;;;;;;;;11.00;99.90;;;;;;4993827;28;19910;-86
2022/01/02 15:03:28;;;;;;;;;;;11.00;99.90;;;;;;4994559;28;19917;-85
2022/01/02 15:05:53;;;;;;;;;;;11.00;99.90;;;;;;4995997;28;19918;-86
2022/01/02 15:08:19;;;;;;;;;;;11.00;99.90;;;;;;4995432;28;19917;-86